地図

経路データ

SID SEASON NUMBER BASIN SUBBASIN NAME ISO_TIME NATURE LAT LON WMO_WIND WMO_PRES WMO_AGENCY TRACK_TYPE DIST2LAND LANDFALL IFLAG USA_AGENCY USA_ATCF_ID USA_LAT USA_LON USA_RECORD USA_STATUS USA_WIND USA_PRES USA_SSHS USA_R34_NE USA_R34_SE USA_R34_SW USA_R34_NW USA_R50_NE USA_R50_SE USA_R50_SW USA_R50_NW USA_R64_NE USA_R64_SE USA_R64_SW USA_R64_NW USA_POCI USA_ROCI USA_RMW USA_EYE TOKYO_LAT TOKYO_LON TOKYO_GRADE TOKYO_WIND TOKYO_PRES TOKYO_R50_DIR TOKYO_R50_LONG TOKYO_R50_SHORT TOKYO_R30_DIR TOKYO_R30_LONG TOKYO_R30_SHORT TOKYO_LAND CMA_LAT CMA_LON CMA_CAT CMA_WIND CMA_PRES HKO_LAT HKO_LON HKO_CAT HKO_WIND HKO_PRES NEWDELHI_LAT NEWDELHI_LON NEWDELHI_GRADE NEWDELHI_WIND NEWDELHI_PRES NEWDELHI_CI NEWDELHI_DP NEWDELHI_POCI REUNION_LAT REUNION_LON REUNION_TYPE REUNION_WIND REUNION_PRES REUNION_TNUM REUNION_CI REUNION_RMW REUNION_R34_NE REUNION_R34_SE REUNION_R34_SW REUNION_R34_NW REUNION_R50_NE REUNION_R50_SE REUNION_R50_SW REUNION_R50_NW REUNION_R64_NE REUNION_R64_SE REUNION_R64_SW REUNION_R64_NW BOM_LAT BOM_LON BOM_TYPE BOM_WIND BOM_PRES BOM_TNUM BOM_CI BOM_RMW BOM_R34_NE BOM_R34_SE BOM_R34_SW BOM_R34_NW BOM_R50_NE BOM_R50_SE BOM_R50_SW BOM_R50_NW BOM_R64_NE BOM_R64_SE BOM_R64_SW BOM_R64_NW BOM_ROCI BOM_POCI BOM_EYE BOM_POS_METHOD BOM_PRES_METHOD NADI_LAT NADI_LON NADI_CAT NADI_WIND NADI_PRES WELLINGTON_LAT WELLINGTON_LON WELLINGTON_WIND WELLINGTON_PRES DS824_LAT DS824_LON DS824_STAGE DS824_WIND DS824_PRES TD9636_LAT TD9636_LON TD9636_STAGE TD9636_WIND TD9636_PRES TD9635_LAT TD9635_LON TD9635_WIND TD9635_PRES TD9635_ROCI NEUMANN_LAT NEUMANN_LON NEUMANN_CLASS NEUMANN_WIND NEUMANN_PRES MLC_LAT MLC_LON MLC_CLASS MLC_WIND MLC_PRES USA_GUST BOM_GUST BOM_GUST_PER REUNION_GUST REUNION_GUST_PER USA_SEAHGT USA_SEARAD_NE USA_SEARAD_SE USA_SEARAD_SW USA_SEARAD_NW STORM_SPEED STORM_DIR
1907355S18412 1908 68 SI MM NOT_NAMED 1907-12-20 18:00:00 NR -18.3000 52.1000 main 283 283 __________O___ -1 -18.3000 52.1000 7 2 171
1907355S18412 1908 68 SI MM NOT_NAMED 1907-12-20 21:00:00 NR -18.3781 52.1281 main 285 285 __________P___ -1 -18.3781 52.1281 7 2 161
1907355S18412 1908 68 SI MM NOT_NAMED 1907-12-21 00:00:00 NR -18.4750 52.1549 main 297 297 __________P___ -1 -18.4750 52.1549 7 2 167
1907355S18412 1908 68 SI MM NOT_NAMED 1907-12-21 03:00:00 NR -18.6094 52.1793 main 298 298 __________P___ -1 -18.6094 52.1793 7 3 175
1907355S18412 1908 68 SI MM NOT_NAMED 1907-12-21 06:00:00 NR -18.8000 52.2000 main 302 302 __________O___ -1 -18.8000 52.2000 7 5 176
1907355S18412 1908 68 SI MM NOT_NAMED 1907-12-21 09:00:00 NR -19.0578 52.2170 main 311 311 __________P___ -1 -19.0578 52.2170 7 6 176
1907355S18412 1908 68 SI MM NOT_NAMED 1907-12-21 12:00:00 NR -19.3625 52.2351 main 323 323 __________P___ -1 -19.3625 52.2351 7 6 176
1907355S18412 1908 68 SI MM NOT_NAMED 1907-12-21 15:00:00 NR -19.6859 52.2607 main 340 325 __________P___ -1 -19.6859 52.2607 7 6 175
1907355S18412 1908 68 SI MM NOT_NAMED 1907-12-21 18:00:00 NR -20.0000 52.3000 main 325 304 __________O___ -1 -20.0000 52.3000 7 6 171
1907355S18412 1908 68 SI MM NOT_NAMED 1907-12-21 21:00:00 NR -20.2684 52.3566 main 304 298 __________P___ -1 -20.2684 52.3566 7 5 167
1907355S18412 1908 68 SI MM NOT_NAMED 1907-12-22 00:00:00 NR -20.5225 52.4275 main 298 282 __________P___ -1 -20.5225 52.4275 7 5 164
1907355S18412 1908 68 SI MM NOT_NAMED 1907-12-22 03:00:00 NR -20.7653 52.5097 main 282 269 __________P___ -1 -20.7653 52.5097 7 5 161
1907355S18412 1908 68 SI MM NOT_NAMED 1907-12-22 06:00:00 NR -21.0000 52.6000 main 269 259 __________O___ -1 -21.0000 52.6000 7 5 161
1907355S18412 1908 68 SI MM NOT_NAMED 1907-12-22 09:00:00 NR -21.2362 52.6808 main 259 250 __________P___ -1 -21.2362 52.6808 7 5 161
1907355S18412 1908 68 SI MM NOT_NAMED 1907-12-22 12:00:00 NR -21.4649 52.7702 main 252 244 __________P___ -1 -21.4649 52.7702 7 5 158
1907355S18412 1908 68 SI MM NOT_NAMED 1907-12-22 15:00:00 NR -21.6862 52.8746 main 247 240 __________P___ -1 -21.6862 52.8746 7 5 154
1907355S18412 1908 68 SI MM NOT_NAMED 1907-12-22 18:00:00 NR -21.9000 53.0000 main 244 239 __________O___ -1 -21.9000 53.0000 7 5 150
1907355S18412 1908 68 SI MM NOT_NAMED 1907-12-22 21:00:00 NR -22.1070 53.1334 main 244 234 __________P___ -1 -22.1070 53.1334 7 5 147
1907355S18412 1908 68 SI MM NOT_NAMED 1907-12-23 00:00:00 NR -22.3072 53.2904 main 234 229 __________P___ -1 -22.3072 53.2904 7 5 141
1907355S18412 1908 68 SI MM NOT_NAMED 1907-12-23 03:00:00 NR -22.5038 53.4772 main 229 227 __________P___ -1 -22.5038 53.4772 7 5 136
1907355S18412 1908 68 SI MM NOT_NAMED 1907-12-23 06:00:00 NR -22.7000 53.7000 main 227 219 __________O___ -1 -22.7000 53.7000 7 6 132
1907355S18412 1908 68 SI MM NOT_NAMED 1907-12-23 09:00:00 NR -22.9042 53.9680 main 223 221 __________P___ -1 -22.9042 53.9680 7 7 128
1907355S18412 1908 68 SI MM NOT_NAMED 1907-12-23 12:00:00 NR -23.1077 54.2699 main 226 226 __________P___ -1 -23.1077 54.2699 7 7 125
1907355S18412 1908 68 SI MM NOT_NAMED 1907-12-23 15:00:00 NR -23.3073 54.5868 main 234 234 __________P___ -1 -23.3073 54.5868 7 7 124
1907355S18412 1908 68 SI MM NOT_NAMED 1907-12-23 18:00:00 NR -23.5000 54.9000 main 245 242 __________O___ -1 -23.5000 54.9000 7 7 125
1907355S18412 1908 68 SI MM NOT_NAMED 1907-12-23 21:00:00 NR -23.6941 55.1783 main 260 258 __________P___ -1 -23.6941 55.1783 7 6 127
1907355S18412 1908 68 SI MM NOT_NAMED 1907-12-24 00:00:00 NR -23.8796 55.4502 main 279 279 __________P___ -1 -23.8796 55.4502 7 6 126
1907355S18412 1908 68 SI MM NOT_NAMED 1907-12-24 03:00:00 NR -24.0504 55.7220 main 301 301 __________P___ -1 -24.0504 55.7220 7 6 123
1907355S18412 1908 68 SI MM NOT_NAMED 1907-12-24 06:00:00 NR -24.2000 56.0000 main 315 315 __________O___ -1 -24.2000 56.0000 7 6 117
1907355S18412 1908 68 SI MM NOT_NAMED 1907-12-24 09:00:00 NR -24.3133 56.2933 main 332 332 __________P___ -1 -24.3133 56.2933 7 6 111
1907355S18412 1908 68 SI MM NOT_NAMED 1907-12-24 12:00:00 NR -24.4073 56.5932 main 350 350 __________P___ -1 -24.4073 56.5932 7 6 109
1907355S18412 1908 68 SI MM NOT_NAMED 1907-12-24 15:00:00 NR -24.4977 56.8964 main 371 371 __________P___ -1 -24.4977 56.8964 7 6 109
1907355S18412 1908 68 SI MM NOT_NAMED 1907-12-24 18:00:00 NR -24.6000 57.2000 main 393 393 __________O___ -1 -24.6000 57.2000 7 6 113
1907355S18412 1908 68 SI MM NOT_NAMED 1907-12-24 21:00:00 NR -24.7262 57.5016 main 416 416 __________P___ -1 -24.7262 57.5016 7 6 117
1907355S18412 1908 68 SI MM NOT_NAMED 1907-12-25 00:00:00 NR -24.8729 57.8016 main 451 451 __________P___ -1 -24.8729 57.8016 7 6 119
1907355S18412 1908 68 SI MM NOT_NAMED 1907-12-25 03:00:00 NR -25.0332 58.1008 main 475 475 __________P___ -1 -25.0332 58.1008 7 6 121
1907355S18412 1908 68 SI MM NOT_NAMED 1907-12-25 06:00:00 NR -25.2000 58.4000 main 510 __________O___ -1 -25.2000 58.4000 7 6 122

IBTrACS Databaseについて

本データベースは、米国NOAAが公開する1842年以降の世界の熱帯低気圧のベストトラックデータアーカイブInternational Best Track Archive for Climate Stewardship (IBTrACS)を、ウェブで閲覧しやすい形式に変換したものです。

最終更新日:2021-10-21